KOCH/OCH METAR and TAF weather

Enter ICAO airport designator
Station Type Date Time Source
KOCH METAR 2020/01/29 02:56 UTC NOAA

KOCH 290256Z AUTO 05003KT 8SM SCT007 BKN032 OVC055 12/12 A2989 RMK AO2 TSE31 SLP126 P0011 60012 T01170117 50012 PWINO $


Station Type Date Time Source
KOCH Decoded METAR 2020/01/29 02:56 UTC NOAA

Nacogdoches, A L Mangham Jr. Regional Airport, TX, United States (KOCH) 31-35N 094-43W
Jan 28, 2020 - 09:56 PM EST / 2020.01.29 0256 UTC
Wind: from the NE (050 degrees) at 3 MPH (3 KT):0
Visibility: 8 mile(s):0
Sky conditions: overcast
Precipitation last hour: 0.11 inches
Temperature: 53.1 F (11.7 C)
Dew Point: 53.1 F (11.7 C)
Relative Humidity: 100%
Pressure (altimeter): 29.89 in. Hg (1012 hPa)
Pressure tendency: 0.04 inches (1.2 hPa) higher than three hours ago
ob: KOCH 290256Z AUTO 05003KT 8SM SCT007 BKN032 OVC055 12/12 A2989 RMK AO2 TSE31 SLP126 P0011 60012 T01170117 50012 PWINO
cycle: 3

Station Type Date Time Source
KOCH TAF UTC NOAA

Error!

Example: see airport list